createdAt,value
2024-05-09T00:00:46.489Z,10.65
2024-05-09T00:03:14.333Z,11.18
2024-05-09T00:05:43.561Z,6.35
2024-05-09T00:08:11.915Z,9.75
2024-05-09T00:10:40.816Z,10.52
2024-05-09T00:13:11.002Z,7.72
2024-05-09T00:15:39.369Z,13.55
2024-05-09T00:18:08.575Z,10.60
2024-05-09T00:20:39.692Z,7.55
2024-05-09T00:23:11.622Z,9.80
2024-05-09T00:25:42.848Z,8.68
2024-05-09T00:28:14.224Z,8.27
2024-05-09T00:30:41.875Z,9.10
2024-05-09T00:33:10.772Z,9.23
2024-05-09T00:35:39.656Z,8.30
2024-05-09T00:38:07.477Z,6.93
2024-05-09T00:40:40.684Z,10.50
2024-05-09T00:43:12.523Z,9.45
2024-05-09T00:45:41.242Z,9.43
2024-05-09T00:48:13.410Z,11.48
2024-05-09T00:50:45.103Z,6.93
2024-05-09T00:53:15.406Z,10.68
2024-05-09T00:55:44.648Z,9.90
2024-05-09T00:58:18.204Z,12.63
2024-05-09T01:00:46.396Z,9.73
2024-05-09T01:03:15.084Z,9.27
2024-05-09T01:05:44.273Z,8.98
2024-05-09T01:08:13.067Z,9.20
2024-05-09T01:10:43.711Z,11.75
2024-05-09T01:13:12.792Z,7.70
2024-05-09T01:15:40.515Z,14.45
2024-05-09T01:18:12.209Z,10.55
2024-05-09T01:20:43.877Z,10.38
2024-05-09T01:23:15.575Z,7.82
2024-05-09T01:25:46.129Z,11.80
2024-05-09T01:28:15.140Z,10.00
2024-05-09T01:30:42.922Z,8.75
2024-05-09T01:33:12.094Z,8.73
2024-05-09T01:35:41.941Z,11.10
2024-05-09T01:38:14.102Z,11.25
2024-05-09T01:40:43.831Z,10.07
2024-05-09T01:43:12.223Z,10.38
2024-05-09T01:45:41.184Z,6.80
2024-05-09T01:48:10.469Z,9.65
2024-05-09T01:50:41.732Z,8.30
2024-05-09T01:53:13.828Z,8.80
2024-05-09T01:55:42.547Z,7.90
2024-05-09T01:58:10.507Z,11.93
2024-05-09T02:00:42.155Z,10.10
2024-05-09T02:03:15.870Z,8.82
2024-05-09T02:05:47.543Z,8.75
2024-05-09T02:08:21.492Z,13.23
2024-05-09T02:10:50.705Z,9.00
2024-05-09T02:13:18.549Z,8.77
2024-05-09T02:15:46.742Z,10.52
2024-05-09T02:18:14.605Z,8.80
2024-05-09T02:20:43.160Z,9.68
2024-05-09T02:23:11.408Z,13.52
2024-05-09T02:25:40.838Z,12.20
2024-05-09T02:28:08.597Z,14.88
2024-05-09T02:30:40.496Z,11.00
2024-05-09T02:33:12.112Z,11.07
2024-05-09T02:35:43.025Z,9.77
2024-05-09T02:38:11.951Z,11.15
2024-05-09T02:40:40.495Z,8.25
2024-05-09T02:43:12.013Z,12.68
2024-05-09T02:45:40.807Z,9.60
2024-05-09T02:48:13.656Z,13.18
2024-05-09T02:50:43.919Z,9.43
2024-05-09T02:53:12.325Z,9.88
2024-05-09T02:55:41.830Z,8.93
2024-05-09T02:58:10.300Z,11.35
2024-05-09T03:00:41.542Z,10.10
2024-05-09T03:03:13.595Z,10.48
2024-05-09T03:05:44.534Z,12.00
2024-05-09T03:08:12.755Z,13.57
2024-05-09T03:10:40.558Z,13.13
2024-05-09T03:13:15.924Z,12.50
2024-05-09T03:15:45.116Z,10.43
2024-05-09T03:18:13.456Z,12.85
2024-05-09T03:20:43.824Z,9.18
2024-05-09T03:23:11.793Z,14.77
2024-05-09T03:25:39.364Z,10.77
2024-05-09T03:28:07.218Z,10.05
2024-05-09T03:30:41.178Z,14.20
2024-05-09T03:33:12.471Z,10.90
2024-05-09T03:35:41.123Z,10.52
2024-05-09T03:38:08.851Z,12.85
2024-05-09T03:40:44.392Z,10.32
2024-05-09T03:43:13.617Z,12.05
2024-05-09T03:45:45.553Z,12.90
2024-05-09T03:48:13.515Z,10.38
2024-05-09T03:50:41.503Z,12.10
2024-05-09T03:53:14.872Z,10.60
2024-05-09T03:55:42.594Z,11.23
2024-05-09T03:58:12.654Z,9.88
2024-05-09T04:00:42.116Z,10.93
2024-05-09T04:03:11.886Z,15.85
2024-05-09T04:05:42.716Z,11.75
2024-05-09T04:08:15.384Z,10.55
2024-05-09T04:10:43.275Z,11.27
2024-05-09T04:13:11.894Z,9.60
2024-05-09T04:15:39.815Z,10.98
2024-05-09T04:18:07.678Z,13.00
2024-05-09T04:20:39.185Z,10.80
2024-05-09T04:23:13.843Z,10.88
2024-05-09T04:25:45.140Z,11.52
2024-05-09T04:28:14.439Z,10.80
2024-05-09T04:30:42.771Z,11.77
2024-05-09T04:33:13.189Z,12.48
2024-05-09T04:35:45.606Z,11.52
2024-05-09T04:38:14.616Z,12.18
2024-05-09T04:40:43.030Z,16.85
2024-05-09T04:43:19.535Z,14.80
2024-05-09T04:45:47.325Z,8.65
2024-05-09T04:48:16.375Z,11.60
2024-05-09T04:50:44.549Z,16.23
2024-05-09T04:53:16.615Z,11.20
2024-05-09T04:55:44.623Z,10.38
2024-05-09T04:58:12.312Z,13.25
2024-05-09T05:00:40.889Z,11.10
2024-05-09T05:03:14.191Z,10.75
2024-05-09T05:05:45.355Z,16.50
2024-05-09T05:08:18.868Z,10.95
2024-05-09T05:10:48.552Z,11.70
2024-05-09T05:13:20.003Z,14.00
2024-05-09T05:15:51.555Z,11.88
2024-05-09T05:18:19.685Z,13.10
2024-05-09T05:20:47.900Z,10.90
2024-05-09T05:23:19.895Z,11.63
2024-05-09T05:25:50.404Z,11.57
2024-05-09T05:28:19.467Z,12.52
2024-05-09T05:30:47.133Z,13.35
2024-05-09T05:33:18.151Z,13.35
2024-05-09T05:35:46.155Z,11.77
2024-05-09T05:38:13.690Z,12.25
2024-05-09T05:40:41.434Z,12.00
2024-05-09T05:43:17.339Z,12.95
2024-05-09T05:45:45.874Z,9.88
2024-05-09T05:48:16.248Z,12.02
2024-05-09T05:50:44.704Z,11.75
2024-05-09T05:53:13.007Z,10.07
2024-05-09T05:55:41.636Z,8.48
2024-05-09T05:58:10.747Z,14.35
2024-05-09T06:00:41.035Z,10.80
2024-05-09T06:03:11.441Z,9.73
2024-05-09T06:05:48.391Z,8.43
2024-05-09T06:08:15.955Z,8.35
2024-05-09T06:10:43.739Z,8.85
2024-05-09T06:13:14.406Z,10.57
2024-05-09T06:15:42.344Z,12.38
2024-05-09T06:18:11.730Z,10.25
2024-05-09T06:20:43.266Z,9.20
2024-05-09T06:23:12.835Z,7.30
2024-05-09T06:25:41.813Z,7.90
2024-05-09T06:28:09.768Z,9.23
2024-05-09T06:30:40.450Z,6.72
2024-05-09T06:33:13.844Z,7.85
2024-05-09T06:35:44.404Z,7.75
2024-05-09T06:38:12.551Z,14.57
2024-05-09T06:40:42.741Z,7.72
2024-05-09T06:43:16.964Z,9.20
2024-05-09T06:45:52.679Z,7.85
2024-05-09T06:48:21.438Z,10.27
2024-05-09T06:50:49.998Z,9.35
2024-05-09T06:53:22.113Z,11.23
2024-05-09T06:55:50.261Z,8.53
2024-05-09T06:58:17.782Z,11.25
2024-05-09T07:00:45.352Z,9.02
2024-05-09T07:03:17.810Z,8.85
2024-05-09T07:05:48.627Z,9.00
2024-05-09T07:08:18.148Z,6.65
2024-05-09T07:10:46.799Z,10.60
2024-05-09T07:13:15.324Z,7.95
2024-05-09T07:15:43.655Z,6.93
2024-05-09T07:18:18.287Z,9.50
2024-05-09T07:20:49.455Z,8.18
2024-05-09T07:23:18.544Z,10.13
2024-05-09T07:25:46.542Z,10.70
2024-05-09T07:28:19.349Z,10.07
2024-05-09T07:30:47.336Z,9.30
2024-05-09T07:33:22.083Z,9.50
2024-05-09T07:35:51.488Z,6.78
2024-05-09T07:38:20.168Z,6.65
2024-05-09T07:40:48.362Z,7.60
2024-05-09T07:43:16.503Z,7.25
2024-05-09T07:45:52.282Z,8.60
2024-05-09T07:52:38.820Z,6.43
2024-05-09T07:53:47.795Z,10.25
2024-05-09T07:56:21.083Z,7.18
2024-05-09T07:58:52.133Z,13.75
2024-05-09T08:01:20.504Z,6.55
2024-05-09T08:03:50.623Z,8.77
2024-05-09T08:06:18.377Z,8.35
2024-05-09T08:08:47.706Z,6.78
2024-05-09T08:11:15.641Z,6.55
2024-05-09T08:13:43.213Z,5.43
2024-05-09T08:16:11.223Z,5.35
2024-05-09T08:18:39.610Z,7.93
2024-05-09T08:21:07.307Z,9.40
2024-05-09T08:23:36.443Z,7.00
2024-05-09T08:26:04.100Z,10.57
2024-05-09T08:28:31.554Z,7.35
2024-05-09T08:31:00.011Z,7.25
2024-05-09T08:33:30.399Z,8.80
2024-05-09T08:35:58.450Z,9.27
2024-05-09T08:38:25.899Z,6.30
2024-05-09T08:40:53.787Z,8.75
2024-05-09T08:43:26.516Z,4.63
2024-05-09T08:45:54.205Z,7.20
2024-05-09T08:48:23.531Z,6.20
2024-05-09T08:50:53.502Z,5.32
2024-05-09T08:53:21.258Z,4.95
2024-05-09T08:55:51.868Z,6.05
2024-05-09T08:58:20.051Z,5.40
2024-05-09T09:00:48.677Z,7.43
2024-05-09T09:03:26.872Z,5.15
2024-05-09T09:06:11.465Z,6.88
2024-05-09T09:08:40.149Z,5.32
2024-05-09T09:11:07.926Z,10.35
2024-05-09T09:13:35.420Z,3.90
2024-05-09T09:16:04.132Z,6.95
2024-05-09T09:18:32.808Z,3.88
2024-05-09T09:21:03.376Z,4.20
2024-05-09T09:23:31.101Z,6.28
2024-05-09T09:26:00.123Z,6.22
2024-05-09T09:28:28.260Z,8.55
2024-05-09T09:31:03.383Z,6.60
2024-05-09T09:33:36.166Z,3.58
2024-05-09T09:36:05.816Z,4.70
2024-05-09T09:38:37.640Z,8.75
2024-05-09T09:41:08.659Z,8.05
2024-05-09T09:43:36.854Z,5.22
2024-05-09T09:46:08.733Z,7.22
2024-05-09T09:48:40.516Z,8.00
2024-05-09T09:51:08.283Z,9.45
2024-05-09T09:53:38.257Z,15.32
2024-05-09T09:56:08.177Z,6.95
2024-05-09T09:58:38.930Z,12.88
2024-05-09T10:01:06.506Z,5.80
2024-05-09T10:03:34.460Z,7.57
2024-05-09T10:06:04.484Z,8.00
2024-05-09T10:08:32.164Z,7.53
2024-05-09T10:11:04.367Z,4.05
2024-05-09T10:13:34.838Z,12.77
2024-05-09T10:16:12.316Z,3.63
2024-05-09T10:18:41.658Z,8.75
2024-05-09T10:21:20.046Z,6.28
2024-05-09T10:24:03.634Z,5.50
2024-05-09T10:26:36.945Z,11.18
2024-05-09T10:29:30.779Z,4.95
2024-05-09T10:31:59.911Z,7.20
2024-05-09T10:34:34.261Z,7.70
2024-05-09T10:37:04.971Z,6.18
2024-05-09T10:39:37.264Z,4.95
2024-05-09T10:42:09.978Z,6.40
2024-05-09T10:44:38.117Z,7.47
2024-05-09T10:47:05.708Z,11.43
2024-05-09T10:49:33.482Z,7.15
2024-05-09T10:52:03.840Z,4.35
2024-05-09T10:54:41.133Z,8.75
2024-05-09T10:57:08.612Z,4.50
2024-05-09T10:59:39.323Z,11.48
2024-05-09T11:02:10.324Z,6.57
2024-05-09T11:04:41.182Z,5.57
2024-05-09T11:07:13.549Z,5.40
2024-05-09T11:09:43.153Z,10.35
2024-05-09T11:12:11.033Z,5.93
2024-05-09T11:14:39.005Z,9.77
2024-05-09T11:17:08.988Z,9.98
2024-05-09T11:19:42.071Z,5.72
2024-05-09T11:22:09.829Z,5.85
2024-05-09T11:24:37.583Z,9.68
2024-05-09T11:27:06.325Z,5.22
2024-05-09T11:29:42.307Z,6.30
2024-05-09T11:32:12.123Z,6.55
2024-05-09T11:34:41.826Z,5.65
2024-05-09T11:37:10.842Z,4.28
2024-05-09T11:39:38.411Z,5.75
2024-05-09T11:42:06.247Z,7.45
2024-05-09T11:44:33.705Z,7.75
2024-05-09T11:47:01.312Z,5.00
2024-05-09T11:49:28.892Z,21.50
2024-05-09T11:51:56.603Z,15.23
2024-05-09T11:54:24.337Z,14.60
2024-05-09T11:56:51.985Z,8.45
2024-05-09T11:59:19.446Z,10.43
2024-05-09T12:01:47.000Z,14.43
2024-05-09T12:04:14.826Z,9.60
2024-05-09T12:06:45.434Z,14.93
2024-05-09T12:09:13.082Z,7.97
2024-05-09T12:11:40.605Z,7.55
2024-05-09T12:14:08.187Z,8.38
2024-05-09T12:16:35.853Z,8.75
2024-05-09T12:19:03.519Z,4.35
2024-05-09T12:21:31.133Z,6.82
2024-05-09T12:23:58.687Z,5.35
2024-05-09T12:26:26.510Z,8.23
2024-05-09T12:28:54.105Z,37.35
2024-05-09T12:31:21.915Z,27.85
2024-05-09T12:33:49.491Z,43.28
2024-05-09T12:36:17.060Z,17.50
2024-05-09T12:38:44.517Z,6.72
2024-05-09T12:41:12.021Z,4.40
2024-05-09T12:43:39.557Z,3.00
2024-05-09T12:46:07.297Z,4.10
2024-05-09T12:48:34.918Z,3.80
2024-05-09T12:51:02.613Z,4.32
2024-05-09T12:53:30.131Z,3.60
2024-05-09T12:56:01.848Z,4.88
2024-05-09T12:58:31.024Z,6.95
2024-05-09T13:00:59.252Z,4.68
2024-05-09T13:03:26.865Z,5.07
2024-05-09T13:05:54.827Z,6.20
2024-05-09T13:08:22.793Z,10.98
2024-05-09T13:10:50.940Z,39.38
2024-05-09T13:13:18.707Z,34.78
2024-05-09T13:15:46.256Z,86.97
2024-05-09T13:18:14.354Z,56.05
2024-05-09T13:20:41.950Z,136.98
2024-05-09T13:23:09.554Z,126.78
2024-05-09T13:25:37.876Z,83.53
2024-05-09T13:28:07.591Z,134.65
2024-05-09T13:30:40.306Z,135.80
2024-05-09T13:33:11.872Z,15.88
2024-05-09T13:35:47.491Z,6.82
2024-05-09T13:38:20.137Z,17.10
2024-05-09T13:40:49.209Z,21.95
2024-05-09T13:43:17.816Z,44.60
2024-05-09T13:45:45.674Z,11.73
2024-05-09T13:48:13.457Z,12.95
2024-05-09T13:50:41.421Z,15.48
2024-05-09T13:53:09.301Z,19.15
2024-05-09T13:55:40.645Z,6.90
2024-05-09T13:58:09.582Z,6.75
2024-05-09T14:00:45.204Z,3.97
2024-05-09T14:03:19.307Z,5.35
2024-05-09T14:05:50.208Z,3.65
2024-05-09T14:08:19.839Z,5.97
2024-05-09T14:10:51.166Z,3.25
2024-05-09T14:13:19.591Z,5.00
2024-05-09T14:15:47.585Z,3.53
2024-05-09T14:18:15.432Z,5.25
2024-05-09T14:20:43.558Z,4.63
2024-05-09T14:23:11.349Z,3.92
2024-05-09T14:25:42.307Z,5.30
2024-05-09T14:28:12.844Z,8.90
2024-05-09T14:30:42.898Z,4.22
2024-05-09T14:33:11.721Z,9.52
2024-05-09T14:35:39.571Z,7.05
2024-05-09T14:38:08.725Z,4.43
2024-05-09T14:40:42.291Z,3.85
2024-05-09T14:43:15.463Z,7.50
2024-05-09T14:45:46.629Z,6.23
2024-05-09T14:48:15.359Z,5.97
2024-05-09T14:50:43.759Z,7.30
2024-05-09T14:53:13.674Z,5.25
2024-05-09T14:55:43.000Z,7.07
2024-05-09T14:58:12.736Z,8.38
2024-05-09T15:00:46.435Z,5.68
2024-05-09T15:03:19.645Z,4.38
2024-05-09T15:05:48.214Z,4.88
2024-05-09T15:08:18.226Z,8.07
2024-05-09T15:10:47.146Z,5.57
2024-05-09T15:13:16.712Z,6.00
2024-05-09T15:15:45.248Z,4.70
2024-05-09T15:18:14.317Z,4.43
2024-05-09T15:20:44.767Z,5.55
2024-05-09T15:23:12.452Z,5.10
2024-05-09T15:25:40.360Z,5.93
2024-05-09T15:28:08.286Z,3.78
2024-05-09T15:30:37.071Z,11.18
2024-05-09T15:33:06.798Z,4.97
2024-05-09T15:35:36.223Z,4.50
2024-05-09T15:38:04.554Z,9.77
2024-05-09T15:40:39.070Z,5.00
2024-05-09T15:43:10.910Z,4.40
2024-05-09T15:45:41.016Z,5.15
2024-05-09T15:48:10.858Z,10.07
2024-05-09T15:50:41.428Z,9.40
2024-05-09T15:53:12.575Z,3.80
2024-05-09T15:55:42.178Z,6.35
2024-05-09T15:58:10.572Z,6.00
2024-05-09T16:00:41.724Z,4.53
2024-05-09T16:03:13.455Z,4.78
2024-05-09T16:05:46.558Z,3.60
2024-05-09T16:10:45.831Z,4.68
2024-05-09T16:13:15.766Z,5.93
2024-05-09T16:15:44.308Z,3.72
2024-05-09T16:18:12.412Z,6.38
2024-05-09T16:20:42.206Z,8.80
2024-05-09T16:23:11.262Z,5.43
2024-05-09T16:25:41.720Z,8.02
2024-05-09T16:28:10.808Z,5.13
2024-05-09T16:30:39.932Z,7.32
2024-05-09T16:33:08.720Z,5.20
2024-05-09T16:35:39.177Z,5.38
2024-05-09T16:38:06.761Z,5.30
2024-05-09T16:40:38.951Z,5.00
2024-05-09T16:43:13.170Z,4.35
2024-05-09T16:45:46.129Z,4.45
2024-05-09T16:48:14.255Z,7.38
2024-05-09T16:50:42.398Z,5.05
2024-05-09T16:53:10.219Z,5.70
2024-05-09T16:55:38.369Z,7.60
2024-05-09T16:58:08.429Z,5.20
2024-05-09T17:00:41.385Z,8.57
2024-05-09T17:03:15.158Z,6.05
2024-05-09T17:05:48.494Z,4.75
2024-05-09T17:08:20.578Z,5.55
2024-05-09T17:10:49.345Z,3.63
2024-05-09T17:13:17.719Z,5.88
2024-05-09T17:15:45.562Z,4.65
2024-05-09T17:18:13.091Z,6.38
2024-05-09T17:20:40.680Z,4.80
2024-05-09T17:23:13.290Z,7.32
2024-05-09T17:25:42.697Z,5.50
2024-05-09T17:28:10.994Z,7.03
2024-05-09T17:30:40.704Z,5.45
2024-05-09T17:33:11.189Z,5.25
2024-05-09T17:35:39.945Z,9.55
2024-05-09T17:38:07.966Z,10.38
2024-05-09T17:40:37.622Z,3.10
2024-05-09T17:43:09.410Z,3.65
2024-05-09T17:45:40.849Z,5.00
2024-05-09T17:48:11.055Z,5.82
2024-05-09T17:50:40.101Z,4.93
2024-05-09T17:53:08.676Z,4.05
2024-05-09T17:55:37.138Z,5.90
2024-05-09T17:58:05.865Z,8.88
2024-05-09T18:00:39.216Z,4.28
2024-05-09T18:03:12.038Z,6.40
2024-05-09T18:05:41.611Z,8.57
2024-05-09T18:08:09.734Z,5.90
2024-05-09T18:10:39.702Z,7.45
2024-05-09T18:13:09.374Z,5.72
2024-05-09T18:15:38.292Z,7.55
2024-05-09T18:18:07.564Z,4.90
2024-05-09T18:20:42.288Z,5.53
2024-05-09T18:23:16.470Z,5.97
2024-05-09T18:25:46.730Z,5.07
2024-05-09T18:28:15.614Z,7.30
2024-05-09T18:30:43.410Z,6.53
2024-05-09T18:33:12.076Z,10.65
2024-05-09T18:35:43.798Z,4.47
2024-05-09T18:38:11.612Z,6.70
2024-05-09T18:40:41.054Z,6.80
2024-05-09T18:43:10.509Z,9.43
2024-05-09T18:45:38.820Z,4.97
2024-05-09T18:48:09.117Z,6.40
2024-05-09T18:50:40.109Z,8.13
2024-05-09T18:53:11.805Z,4.80
2024-05-09T18:55:41.715Z,4.78
2024-05-09T18:58:09.319Z,9.18
2024-05-09T19:00:39.650Z,7.00
2024-05-09T19:03:12.408Z,4.07
2024-05-09T19:05:43.871Z,6.15
2024-05-09T19:08:12.870Z,5.55
2024-05-09T19:10:41.201Z,6.95
2024-05-09T19:13:12.364Z,6.82
2024-05-09T19:15:43.240Z,5.25
2024-05-09T19:18:13.961Z,6.20
2024-05-09T19:20:42.485Z,8.23
2024-05-09T19:23:11.544Z,10.75
2024-05-09T19:25:39.209Z,10.55
2024-05-09T19:28:07.079Z,22.23
2024-05-09T19:30:40.071Z,18.65
2024-05-09T19:33:12.725Z,11.45
2024-05-09T19:35:42.792Z,20.55
2024-05-09T19:38:11.137Z,15.00
2024-05-09T19:40:39.084Z,7.07
2024-05-09T19:43:07.043Z,7.28
2024-05-09T19:45:35.787Z,7.00
2024-05-09T19:48:06.333Z,8.13
2024-05-09T19:50:41.479Z,23.73
2024-05-09T19:53:13.300Z,7.18
2024-05-09T19:55:42.116Z,7.90
2024-05-09T19:58:10.719Z,9.98
2024-05-09T20:00:41.746Z,6.15
2024-05-09T20:03:15.307Z,6.30
2024-05-09T20:05:46.594Z,10.55
2024-05-09T20:08:14.792Z,6.18
2024-05-09T20:10:42.541Z,4.97
2024-05-09T20:13:10.253Z,5.97
2024-05-09T20:15:38.279Z,5.53
2024-05-09T20:18:06.734Z,6.53
2024-05-09T20:20:39.571Z,7.20
2024-05-09T20:23:11.976Z,8.48
2024-05-09T20:25:40.510Z,6.50
2024-05-09T20:28:08.431Z,5.72
2024-05-09T20:30:36.749Z,8.68
2024-05-09T20:33:07.438Z,9.77
2024-05-09T20:35:36.418Z,7.20
2024-05-09T20:38:04.620Z,6.57
2024-05-09T20:40:36.731Z,8.70
2024-05-09T20:43:09.259Z,5.57
2024-05-09T20:45:37.416Z,5.72
2024-05-09T20:48:06.354Z,7.60
2024-05-09T20:50:39.268Z,7.50
2024-05-09T20:53:12.137Z,7.40
2024-05-09T20:55:40.611Z,9.15
2024-05-09T20:58:09.928Z,5.47
2024-05-09T21:00:41.430Z,9.07
2024-05-09T21:03:13.501Z,6.57
2024-05-09T21:05:42.160Z,6.85
2024-05-09T21:08:09.755Z,6.90
2024-05-09T21:10:37.804Z,5.57
2024-05-09T21:13:06.771Z,6.90
2024-05-09T21:15:35.847Z,6.97
2024-05-09T21:18:04.586Z,8.90
2024-05-09T21:20:34.582Z,5.20
2024-05-09T21:23:02.869Z,4.95
2024-05-09T21:25:31.146Z,5.68
2024-05-09T21:27:58.985Z,8.77
2024-05-09T21:30:33.138Z,8.45
2024-05-09T21:33:10.582Z,8.63
2024-05-09T21:35:40.905Z,6.32
2024-05-09T21:38:08.714Z,4.90
2024-05-09T21:40:37.911Z,5.45
2024-05-09T21:43:09.367Z,7.70
2024-05-09T21:45:37.416Z,9.60
2024-05-09T21:48:07.264Z,7.85
2024-05-09T21:50:40.316Z,11.80
2024-05-09T21:53:11.920Z,7.25
2024-05-09T21:55:40.097Z,11.68
2024-05-09T21:58:08.015Z,7.43
2024-05-09T22:00:39.272Z,6.85
2024-05-09T22:03:08.467Z,8.25
2024-05-09T22:05:37.661Z,7.22
2024-05-09T22:08:05.969Z,6.07
2024-05-09T22:10:35.905Z,9.15
2024-05-09T22:13:06.293Z,8.85
2024-05-09T22:15:37.459Z,7.03
2024-05-09T22:18:07.303Z,9.18
2024-05-09T22:20:38.472Z,6.78
2024-05-09T22:23:08.598Z,7.23
2024-05-09T22:25:38.750Z,9.18
2024-05-09T22:28:06.998Z,8.70
2024-05-09T22:30:38.294Z,10.25
2024-05-09T22:35:37.823Z,10.95
2024-05-09T22:38:05.593Z,13.70
2024-05-09T22:40:42.716Z,8.43
2024-05-09T22:43:24.298Z,13.77
2024-05-09T22:45:54.744Z,6.65
2024-05-09T22:48:24.359Z,11.32
2024-05-09T22:50:54.253Z,8.10
2024-05-09T22:53:25.025Z,10.77
2024-05-09T22:55:53.337Z,9.68
2024-05-09T22:58:21.274Z,10.43
2024-05-09T23:00:49.077Z,8.82
2024-05-09T23:03:16.930Z,10.55
2024-05-09T23:05:44.518Z,11.43
2024-05-09T23:08:11.966Z,10.75
2024-05-09T23:10:39.530Z,7.50
2024-05-09T23:13:07.995Z,11.40
2024-05-09T23:15:39.837Z,8.43
2024-05-09T23:18:07.966Z,8.45
2024-05-09T23:20:38.882Z,10.52
2024-05-09T23:23:09.426Z,8.63
2024-05-09T23:25:38.035Z,12.35
2024-05-09T23:28:06.137Z,10.35
2024-05-09T23:30:38.491Z,10.75
2024-05-09T23:33:11.774Z,10.05
2024-05-09T23:35:43.435Z,17.63
2024-05-09T23:38:11.449Z,31.77
2024-05-09T23:40:41.046Z,13.68
2024-05-09T23:43:11.365Z,14.60
2024-05-09T23:45:39.994Z,33.88
2024-05-09T23:48:08.914Z,16.52
2024-05-09T23:50:38.519Z,10.27
2024-05-09T23:53:09.201Z,11.43
2024-05-09T23:55:38.112Z,14.40
2024-05-09T23:58:07.003Z,20.80
